createdAt,value
2023-01-18T00:01:20.499Z,78.66
2023-01-18T00:03:47.570Z,78.36
2023-01-18T00:06:14.359Z,77.77
2023-01-18T00:08:42.436Z,77.96
2023-01-18T00:11:12.514Z,77.59
2023-01-18T00:13:39.846Z,76.99
2023-01-18T00:16:19.156Z,77.02
2023-01-18T00:18:53.953Z,76.42
2023-01-18T00:21:21.013Z,74.64
2023-01-18T00:23:47.646Z,74.37
2023-01-18T00:26:14.444Z,72.08
2023-01-18T00:28:41.541Z,72.70
2023-01-18T00:31:15.761Z,72.99
2023-01-18T00:33:44.104Z,73.59
2023-01-18T00:36:11.805Z,73.66
2023-01-18T00:38:38.481Z,74.55
2023-01-18T00:41:05.242Z,75.03
2023-01-18T00:43:40.865Z,73.36
2023-01-18T00:46:10.305Z,72.60
2023-01-18T00:48:38.890Z,71.61
2023-01-18T00:51:06.834Z,70.89
2023-01-18T00:53:33.419Z,70.91
2023-01-18T00:56:00.099Z,70.72
2023-01-18T00:58:26.695Z,71.15
2023-01-18T01:00:53.816Z,69.48
2023-01-18T01:03:21.487Z,70.41
2023-01-18T01:06:06.972Z,70.62
2023-01-18T01:08:34.375Z,71.12
2023-01-18T01:11:08.017Z,72.31
2023-01-18T01:13:53.684Z,71.59
2023-01-18T01:16:39.394Z,71.03
2023-01-18T01:19:24.792Z,71.53
2023-01-18T01:22:09.917Z,71.68
2023-01-18T01:24:55.587Z,69.86
2023-01-18T01:27:22.321Z,70.59
2023-01-18T01:29:48.919Z,71.31
2023-01-18T01:32:15.600Z,71.88
2023-01-18T01:34:42.246Z,70.61
2023-01-18T01:37:08.932Z,70.75
2023-01-18T01:39:35.716Z,70.80
2023-01-18T01:42:02.471Z,70.31
2023-01-18T01:44:34.265Z,71.45
2023-01-18T01:47:10.332Z,70.61
2023-01-18T01:49:41.093Z,70.17
2023-01-18T01:52:11.419Z,69.04
2023-01-18T01:55:21.108Z,68.49
2023-01-18T01:57:57.673Z,67.33
2023-01-18T02:00:25.287Z,67.42
2023-01-18T02:03:00.708Z,66.48
2023-01-18T02:05:29.866Z,65.49
2023-01-18T02:07:59.848Z,65.66
2023-01-18T02:10:27.035Z,66.04
2023-01-18T02:12:55.127Z,66.83
2023-01-18T02:15:27.783Z,68.40
2023-01-18T02:18:40.922Z,68.87
2023-01-18T02:21:16.200Z,70.39
2023-01-18T02:23:46.012Z,69.89
2023-01-18T02:26:21.809Z,69.98
2023-01-18T02:29:15.089Z,70.45
2023-01-18T02:32:43.594Z,70.46
2023-01-18T02:35:15.638Z,70.29
2023-01-18T02:38:05.716Z,71.22
2023-01-18T02:41:16.757Z,70.47
2023-01-18T02:44:04.262Z,71.12
2023-01-18T02:46:35.811Z,70.96
2023-01-18T02:49:05.462Z,71.35
2023-01-18T02:51:32.450Z,70.50
2023-01-18T02:54:00.425Z,70.67
2023-01-18T02:56:27.044Z,70.64
2023-01-18T02:59:17.720Z,69.93
2023-01-18T03:01:53.748Z,69.29
2023-01-18T03:04:33.550Z,68.57
2023-01-18T03:07:17.738Z,68.82
2023-01-18T03:09:45.039Z,68.98
2023-01-18T03:12:46.248Z,69.02
2023-01-18T03:15:22.355Z,68.80
2023-01-18T03:17:55.184Z,69.28
2023-01-18T03:20:25.940Z,69.49
2023-01-18T03:23:25.032Z,69.63
2023-01-18T03:25:56.292Z,69.27
2023-01-18T03:28:47.282Z,68.55
2023-01-18T03:31:40.452Z,69.50
2023-01-18T03:34:28.667Z,69.11
2023-01-18T03:37:00.141Z,68.37
2023-01-18T03:39:34.027Z,67.93
2023-01-18T03:42:03.969Z,67.88
2023-01-18T03:44:42.256Z,67.77
2023-01-18T03:47:09.131Z,67.71
2023-01-18T03:49:36.375Z,66.92
2023-01-18T03:52:17.160Z,67.10
2023-01-18T03:54:59.712Z,68.08
2023-01-18T03:57:41.422Z,66.98
2023-01-18T04:00:10.139Z,66.48
2023-01-18T04:02:37.541Z,65.91
2023-01-18T04:05:05.840Z,65.42
2023-01-18T04:07:32.972Z,65.51
2023-01-18T04:10:00.442Z,65.19
2023-01-18T04:12:27.293Z,65.25
2023-01-18T04:14:54.018Z,64.84
2023-01-18T04:17:20.825Z,65.25
2023-01-18T04:19:47.397Z,65.05
2023-01-18T04:22:14.705Z,64.59
2023-01-18T04:24:41.308Z,65.53
2023-01-18T04:27:08.114Z,65.62
2023-01-18T04:29:34.819Z,65.57
2023-01-18T04:32:01.455Z,65.13
2023-01-18T04:34:28.283Z,64.25
2023-01-18T04:36:55.247Z,64.80
2023-01-18T04:39:21.882Z,65.14
2023-01-18T04:41:48.615Z,65.38
2023-01-18T04:44:16.086Z,64.81
2023-01-18T04:46:43.054Z,65.84
2023-01-18T04:49:15.554Z,66.59
2023-01-18T04:51:43.956Z,67.74
2023-01-18T04:54:11.791Z,67.86
2023-01-18T04:56:39.487Z,67.44
2023-01-18T04:59:06.343Z,67.17
2023-01-18T05:01:33.717Z,66.50
2023-01-18T05:04:01.717Z,65.79
2023-01-18T05:06:28.397Z,64.99
2023-01-18T05:08:55.131Z,64.27
2023-01-18T05:11:23.452Z,64.62
2023-01-18T05:13:50.220Z,64.84
2023-01-18T05:16:22.041Z,63.89
2023-01-18T05:18:49.164Z,63.18
2023-01-18T05:21:16.068Z,62.08
2023-01-18T05:23:42.895Z,61.88
2023-01-18T05:26:18.807Z,62.05
2023-01-18T05:28:45.923Z,62.35
2023-01-18T05:31:14.099Z,61.86
2023-01-18T05:33:41.109Z,61.43
2023-01-18T05:36:08.158Z,60.79
2023-01-18T05:38:34.808Z,61.46
2023-01-18T05:41:01.772Z,61.31
2023-01-18T05:43:29.120Z,61.87
2023-01-18T05:45:56.096Z,61.58
2023-01-18T05:48:24.162Z,61.29
2023-01-18T05:50:51.082Z,61.43
2023-01-18T05:53:20.362Z,61.69
2023-01-18T05:56:00.569Z,62.50
2023-01-18T05:58:27.972Z,62.06
2023-01-18T06:00:55.360Z,61.29
2023-01-18T06:03:22.999Z,60.65
2023-01-18T06:05:51.552Z,60.88
2023-01-18T06:08:19.009Z,59.94
2023-01-18T06:10:55.568Z,58.87
2023-01-18T06:13:23.407Z,59.17
2023-01-18T06:15:50.227Z,60.80
2023-01-18T06:18:16.918Z,61.88
2023-01-18T06:20:43.690Z,62.59
2023-01-18T06:23:10.451Z,61.95
2023-01-18T06:25:37.245Z,62.46
2023-01-18T06:28:05.322Z,63.65
2023-01-18T06:30:32.917Z,63.26
2023-01-18T06:33:04.862Z,63.77
2023-01-18T06:35:31.765Z,63.25
2023-01-18T06:37:59.054Z,61.77
2023-01-18T06:40:26.121Z,62.56
2023-01-18T06:42:52.814Z,62.74
2023-01-18T06:45:22.112Z,61.94
2023-01-18T06:47:49.682Z,63.25
2023-01-18T06:50:17.291Z,63.26
2023-01-18T06:52:45.026Z,63.56
2023-01-18T06:55:13.335Z,63.70
2023-01-18T06:57:40.115Z,63.35
2023-01-18T07:00:08.510Z,63.85
2023-01-18T07:02:36.460Z,63.06
2023-01-18T07:05:03.929Z,63.52
2023-01-18T07:07:31.093Z,64.35
2023-01-18T07:09:57.816Z,64.42
2023-01-18T07:12:24.441Z,63.94
2023-01-18T07:14:52.503Z,64.18
2023-01-18T07:17:19.274Z,63.60
2023-01-18T07:19:46.018Z,63.74
2023-01-18T07:22:13.581Z,63.17
2023-01-18T07:24:40.161Z,62.88
2023-01-18T07:27:07.109Z,62.25
2023-01-18T07:29:33.800Z,61.03
2023-01-18T07:32:01.247Z,60.89
2023-01-18T07:34:27.998Z,60.42
2023-01-18T07:36:54.853Z,60.33
2023-01-18T07:39:22.012Z,60.32
2023-01-18T07:41:48.793Z,60.82
2023-01-18T07:44:15.959Z,60.97
2023-01-18T07:46:43.309Z,60.66
2023-01-18T07:49:10.026Z,60.41
2023-01-18T07:51:36.829Z,60.18
2023-01-18T07:54:03.658Z,59.95
2023-01-18T07:56:30.807Z,59.08
2023-01-18T07:58:57.449Z,59.22
2023-01-18T08:01:25.002Z,59.05
2023-01-18T08:03:53.652Z,58.62
2023-01-18T08:06:25.211Z,58.38
2023-01-18T08:08:52.889Z,57.40
2023-01-18T08:11:19.743Z,56.70
2023-01-18T08:13:48.907Z,56.50
2023-01-18T08:16:16.297Z,56.56
2023-01-18T08:18:45.336Z,56.32
2023-01-18T08:21:13.626Z,56.70
2023-01-18T08:23:41.001Z,56.71
2023-01-18T08:26:09.086Z,56.16
2023-01-18T08:28:36.210Z,56.65
2023-01-18T08:31:12.718Z,57.40
2023-01-18T08:33:41.611Z,57.00
2023-01-18T08:36:20.144Z,57.19
2023-01-18T08:38:52.435Z,56.48
2023-01-18T08:41:20.394Z,56.51
2023-01-18T08:43:51.063Z,56.55
2023-01-18T08:46:18.543Z,56.54
2023-01-18T08:48:45.483Z,56.40
2023-01-18T08:51:12.101Z,56.44
2023-01-18T08:53:38.851Z,56.06
2023-01-18T08:56:06.899Z,56.28
2023-01-18T08:58:33.867Z,55.68
2023-01-18T09:01:08.188Z,55.99
2023-01-18T09:03:35.759Z,56.71
2023-01-18T09:06:04.784Z,56.18
2023-01-18T09:08:31.992Z,55.70
2023-01-18T09:11:03.995Z,55.90
2023-01-18T09:13:31.855Z,55.88
2023-01-18T09:16:02.859Z,55.29
2023-01-18T09:18:30.267Z,56.17
2023-01-18T09:20:58.642Z,56.16
2023-01-18T09:23:25.970Z,56.75
2023-01-18T09:26:09.873Z,56.92
2023-01-18T09:28:36.558Z,57.04
2023-01-18T09:31:04.756Z,57.03
2023-01-18T09:33:37.480Z,56.99
2023-01-18T09:36:07.829Z,57.61
2023-01-18T09:38:36.106Z,56.49
2023-01-18T09:41:06.130Z,57.43
2023-01-18T09:43:43.105Z,57.30
2023-01-18T09:46:20.067Z,56.87
2023-01-18T09:48:54.630Z,57.15
2023-01-18T09:51:28.147Z,56.38
2023-01-18T09:54:10.056Z,56.33
2023-01-18T09:56:52.116Z,56.99
2023-01-18T09:59:33.526Z,56.56
2023-01-18T10:02:03.749Z,55.23
2023-01-18T10:04:37.083Z,55.85
2023-01-18T10:07:12.147Z,55.52
2023-01-18T10:09:46.409Z,54.62
2023-01-18T10:12:27.942Z,54.36
2023-01-18T10:15:02.180Z,54.19
2023-01-18T10:17:42.038Z,54.05
2023-01-18T10:20:20.794Z,53.84
2023-01-18T10:23:31.665Z,53.06
2023-01-18T10:26:26.353Z,52.96
2023-01-18T10:29:27.339Z,52.80
2023-01-18T10:32:11.025Z,52.40
2023-01-18T10:34:44.104Z,52.00
2023-01-18T10:37:40.317Z,52.75
2023-01-18T10:40:10.403Z,52.53
2023-01-18T10:42:40.383Z,52.04
2023-01-18T10:45:34.989Z,51.59
2023-01-18T10:48:32.237Z,51.58
2023-01-18T10:51:05.956Z,51.83
2023-01-18T10:53:39.864Z,51.95
2023-01-18T10:56:16.464Z,51.66
2023-01-18T10:58:46.272Z,51.43
2023-01-18T11:01:21.264Z,51.98
2023-01-18T11:03:53.103Z,50.91
2023-01-18T11:06:21.122Z,51.81
2023-01-18T11:08:49.594Z,51.52
2023-01-18T11:11:18.149Z,51.51
2023-01-18T11:13:47.199Z,50.55
2023-01-18T11:16:18.347Z,50.71
2023-01-18T11:18:56.578Z,50.90
2023-01-18T11:21:24.818Z,51.62
2023-01-18T11:23:53.025Z,50.89
2023-01-18T11:26:23.500Z,50.89
2023-01-18T11:29:05.401Z,50.78
2023-01-18T11:31:49.773Z,50.36
2023-01-18T11:34:30.471Z,50.89
2023-01-18T11:36:58.415Z,50.01
2023-01-18T11:39:36.277Z,50.24
2023-01-18T11:42:13.927Z,50.19
2023-01-18T11:44:48.484Z,49.64
2023-01-18T11:47:45.536Z,49.87
2023-01-18T11:50:28.482Z,49.83
2023-01-18T11:53:15.033Z,49.54
2023-01-18T11:55:56.026Z,49.30
2023-01-18T11:58:29.427Z,48.94
2023-01-18T12:01:24.835Z,48.53
2023-01-18T12:04:06.530Z,48.33
2023-01-18T12:06:49.216Z,47.92
2023-01-18T12:09:40.228Z,47.36
2023-01-18T12:12:28.186Z,47.55
2023-01-18T12:15:09.670Z,47.14
2023-01-18T12:17:58.641Z,46.80
2023-01-18T12:21:23.811Z,47.10
2023-01-18T12:24:09.063Z,46.83
2023-01-18T12:26:47.968Z,47.42
2023-01-18T12:29:45.628Z,47.12
2023-01-18T12:32:44.821Z,46.65
2023-01-18T12:35:23.628Z,46.62
2023-01-18T12:38:05.477Z,47.12
2023-01-18T12:40:48.656Z,47.28
2023-01-18T12:43:32.400Z,47.44
2023-01-18T12:46:07.254Z,47.74
2023-01-18T12:48:56.953Z,47.54
2023-01-18T12:51:28.010Z,47.23
2023-01-18T12:54:10.852Z,47.51
2023-01-18T12:56:43.454Z,47.94
2023-01-18T12:59:20.312Z,48.84
2023-01-18T13:01:53.000Z,48.90
2023-01-18T13:04:25.212Z,48.99
2023-01-18T13:06:59.873Z,49.25
2023-01-18T13:09:33.456Z,48.96
2023-01-18T13:12:05.893Z,49.27
2023-01-18T13:15:14.156Z,49.62
2023-01-18T13:17:51.945Z,49.78
2023-01-18T13:20:40.771Z,49.63
2023-01-18T13:23:32.263Z,49.79
2023-01-18T13:26:21.892Z,49.62
2023-01-18T13:28:48.541Z,49.51
2023-01-18T13:31:15.960Z,49.22
2023-01-18T13:33:47.873Z,49.09
2023-01-18T13:36:21.770Z,48.91
2023-01-18T13:38:58.309Z,48.97
2023-01-18T13:41:27.473Z,48.56
2023-01-18T13:44:03.127Z,48.48
2023-01-18T13:46:32.995Z,48.59
2023-01-18T13:49:02.547Z,48.73
2023-01-18T13:51:41.281Z,48.43
2023-01-18T13:54:10.214Z,48.46
2023-01-18T13:56:38.162Z,48.52
2023-01-18T13:59:18.658Z,48.05
2023-01-18T14:01:50.879Z,47.68
2023-01-18T14:04:33.204Z,47.50
2023-01-18T14:07:02.379Z,47.59
2023-01-18T14:09:34.426Z,47.50
2023-01-18T14:12:01.117Z,47.19
2023-01-18T14:14:34.456Z,47.32
2023-01-18T14:17:17.037Z,47.27
2023-01-18T14:19:52.244Z,47.80
2023-01-18T14:22:37.052Z,47.29
2023-01-18T14:25:31.556Z,47.29
2023-01-18T14:28:22.683Z,47.80
2023-01-18T14:30:49.866Z,47.82
2023-01-18T14:33:45.694Z,47.33
2023-01-18T14:36:35.725Z,48.03
2023-01-18T14:39:17.722Z,48.25
2023-01-18T14:41:48.062Z,48.35
2023-01-18T14:44:24.859Z,48.39
2023-01-18T14:46:55.352Z,48.54
2023-01-18T14:49:29.113Z,48.76
2023-01-18T14:51:56.711Z,48.08
2023-01-18T14:54:24.993Z,48.50
2023-01-18T14:56:59.589Z,48.47
2023-01-18T14:59:29.697Z,47.89
2023-01-18T15:02:02.300Z,47.70
2023-01-18T15:04:31.655Z,47.67
2023-01-18T15:07:03.942Z,47.73
2023-01-18T15:09:37.347Z,47.64
2023-01-18T15:12:11.953Z,47.80
2023-01-18T15:14:44.713Z,47.50
2023-01-18T15:17:21.484Z,47.39
2023-01-18T15:19:53.077Z,47.70
2023-01-18T15:22:24.790Z,47.79
2023-01-18T15:24:51.474Z,47.63
2023-01-18T15:27:20.007Z,47.92
2023-01-18T15:29:55.401Z,47.85
2023-01-18T15:32:25.221Z,48.14
2023-01-18T15:34:54.344Z,47.85
2023-01-18T15:37:30.271Z,48.11
2023-01-18T15:39:57.777Z,48.08
2023-01-18T15:42:30.057Z,47.79
2023-01-18T15:44:59.301Z,47.76
2023-01-18T15:47:32.784Z,47.88
2023-01-18T15:50:01.734Z,47.66
2023-01-18T15:52:43.750Z,47.92
2023-01-18T15:55:26.146Z,47.75
2023-01-18T15:58:05.632Z,47.83
2023-01-18T16:00:57.034Z,48.27
2023-01-18T16:03:31.903Z,48.10
2023-01-18T16:05:58.523Z,48.22
2023-01-18T16:08:25.630Z,48.38
2023-01-18T16:10:55.721Z,48.47
2023-01-18T16:13:26.462Z,48.19
2023-01-18T16:16:14.163Z,48.66
2023-01-18T16:18:50.311Z,48.57
2023-01-18T16:21:33.516Z,48.96
2023-01-18T16:24:00.497Z,48.91
2023-01-18T16:26:30.512Z,48.96
2023-01-18T16:29:08.147Z,49.49
2023-01-18T16:31:38.811Z,49.52
2023-01-18T16:34:21.569Z,49.33
2023-01-18T16:36:49.032Z,49.64
2023-01-18T16:39:15.622Z,49.75
2023-01-18T16:41:45.511Z,49.60
2023-01-18T16:44:12.291Z,49.97
2023-01-18T16:46:38.911Z,49.67
2023-01-18T16:49:13.018Z,49.72
2023-01-18T16:51:40.634Z,49.92
2023-01-18T16:54:07.328Z,49.94
2023-01-18T16:56:33.964Z,49.95
2023-01-18T16:59:04.189Z,49.87
2023-01-18T17:01:31.216Z,49.65
2023-01-18T17:03:57.909Z,48.95
2023-01-18T17:06:26.445Z,49.50
2023-01-18T17:08:53.002Z,48.49
2023-01-18T17:11:19.658Z,48.73
2023-01-18T17:13:47.834Z,48.52
2023-01-18T17:16:17.554Z,48.32
2023-01-18T17:18:45.082Z,48.19
2023-01-18T17:21:12.201Z,48.31
2023-01-18T17:23:39.937Z,48.84
2023-01-18T17:26:08.089Z,48.54
2023-01-18T17:28:34.790Z,48.15
2023-01-18T17:31:01.561Z,48.16
2023-01-18T17:33:28.499Z,48.00
2023-01-18T17:35:55.408Z,47.78
2023-01-18T17:38:24.912Z,47.96
2023-01-18T17:40:52.583Z,47.96
2023-01-18T17:43:32.016Z,47.67
2023-01-18T17:46:03.212Z,47.58
2023-01-18T17:48:30.784Z,47.47
2023-01-18T17:50:58.124Z,47.81
2023-01-18T17:53:26.159Z,47.84
2023-01-18T17:55:52.890Z,48.02
2023-01-18T17:58:19.660Z,47.92
2023-01-18T18:00:46.682Z,47.69
2023-01-18T18:03:13.533Z,47.57
2023-01-18T18:05:40.396Z,47.66
2023-01-18T18:08:09.120Z,46.15
2023-01-18T18:10:38.797Z,46.45
2023-01-18T18:13:05.675Z,46.19
2023-01-18T18:15:32.357Z,46.32
2023-01-18T18:17:59.271Z,47.28
2023-01-18T18:20:26.108Z,47.94
2023-01-18T18:22:52.930Z,48.85
2023-01-18T18:25:19.707Z,48.64
2023-01-18T18:27:47.399Z,48.89
2023-01-18T18:30:17.071Z,49.14
2023-01-18T18:32:43.947Z,49.68
2023-01-18T18:35:26.627Z,49.95
2023-01-18T18:37:54.544Z,49.49
2023-01-18T18:40:21.965Z,49.22
2023-01-18T18:43:04.923Z,49.10
2023-01-18T18:45:32.258Z,49.06
2023-01-18T18:47:59.596Z,49.25
2023-01-18T18:50:26.352Z,49.96
2023-01-18T18:52:53.368Z,49.91
2023-01-18T18:55:20.324Z,51.02
2023-01-18T18:57:47.293Z,51.68
2023-01-18T19:00:14.465Z,52.29
2023-01-18T19:02:41.390Z,52.63
2023-01-18T19:05:08.825Z,53.62
2023-01-18T19:07:35.907Z,54.71
2023-01-18T19:10:04.091Z,55.52
2023-01-18T19:12:35.007Z,56.13
2023-01-18T19:15:02.132Z,56.73
2023-01-18T19:17:31.076Z,57.55
2023-01-18T19:19:58.491Z,57.84
2023-01-18T19:22:25.281Z,58.77
2023-01-18T19:24:52.950Z,58.49
2023-01-18T19:27:21.343Z,59.13
2023-01-18T19:29:48.262Z,58.23
2023-01-18T19:32:15.718Z,58.86
2023-01-18T19:34:42.539Z,57.99
2023-01-18T19:37:09.610Z,57.67
2023-01-18T19:39:36.695Z,57.80
2023-01-18T19:42:03.625Z,57.98
2023-01-18T19:44:30.483Z,57.61
2023-01-18T19:46:57.472Z,59.13
2023-01-18T19:49:26.012Z,60.81
2023-01-18T19:51:54.695Z,60.79
2023-01-18T19:54:22.064Z,60.98
2023-01-18T19:56:49.131Z,61.14
2023-01-18T19:59:16.374Z,59.86
2023-01-18T20:01:44.033Z,59.10
2023-01-18T20:04:13.338Z,59.60
2023-01-18T20:06:43.613Z,60.53
2023-01-18T20:09:19.656Z,59.64
2023-01-18T20:11:49.167Z,58.75
2023-01-18T20:14:16.545Z,58.68
2023-01-18T20:16:45.908Z,58.01
2023-01-18T20:19:14.265Z,58.32
2023-01-18T20:21:41.225Z,59.12
2023-01-18T20:24:08.870Z,58.60
2023-01-18T20:26:38.065Z,58.12
2023-01-18T20:29:07.177Z,58.96
2023-01-18T20:31:36.500Z,61.05
2023-01-18T20:34:04.200Z,60.82
2023-01-18T20:36:31.294Z,61.19
2023-01-18T20:38:58.616Z,60.78
2023-01-18T20:41:25.405Z,60.50
2023-01-18T20:43:52.909Z,60.58
2023-01-18T20:46:19.752Z,59.92
2023-01-18T20:48:46.539Z,58.14
2023-01-18T20:51:13.342Z,59.13
2023-01-18T20:53:40.195Z,60.12
2023-01-18T20:56:23.170Z,60.89
2023-01-18T20:58:54.592Z,60.50
2023-01-18T21:01:21.452Z,60.82
2023-01-18T21:03:54.909Z,62.59
2023-01-18T21:06:21.925Z,63.63
2023-01-18T21:08:52.703Z,64.42
2023-01-18T21:11:23.168Z,65.03
2023-01-18T21:13:50.408Z,64.65
2023-01-18T21:16:17.552Z,65.38
2023-01-18T21:18:44.216Z,64.77
2023-01-18T21:21:11.268Z,64.85
2023-01-18T21:23:39.582Z,63.20
2023-01-18T21:26:08.951Z,61.39
2023-01-18T21:28:36.084Z,61.61
2023-01-18T21:31:02.941Z,60.91
2023-01-18T21:33:29.750Z,61.69
2023-01-18T21:36:09.360Z,64.29
2023-01-18T21:38:36.484Z,65.73
2023-01-18T21:41:22.132Z,65.48
2023-01-18T21:44:07.530Z,65.63
2023-01-18T21:46:34.457Z,64.12
2023-01-18T21:49:06.664Z,63.72
2023-01-18T21:51:52.479Z,62.83
2023-01-18T21:54:19.725Z,62.85
2023-01-18T21:56:47.455Z,61.65
2023-01-18T21:59:14.554Z,59.20
2023-01-18T22:01:47.110Z,58.07
2023-01-18T22:04:34.154Z,58.08
2023-01-18T22:07:01.215Z,53.75
2023-01-18T22:09:29.978Z,53.89
2023-01-18T22:11:57.616Z,50.06
2023-01-18T22:14:25.740Z,53.30
2023-01-18T22:16:52.775Z,53.20
2023-01-18T22:19:19.428Z,53.08
2023-01-18T22:21:47.513Z,53.07
2023-01-18T22:24:15.228Z,52.75
2023-01-18T22:26:42.432Z,52.32
2023-01-18T22:29:09.547Z,50.16
2023-01-18T22:31:36.557Z,46.43
2023-01-18T22:34:05.438Z,46.17
2023-01-18T22:36:33.180Z,46.99
2023-01-18T22:39:00.331Z,47.10
2023-01-18T22:41:28.506Z,46.96
2023-01-18T22:43:55.917Z,46.46
2023-01-18T22:46:23.966Z,46.10
2023-01-18T22:48:51.124Z,45.56
2023-01-18T22:51:20.800Z,46.19
2023-01-18T22:53:47.991Z,45.88
2023-01-18T22:56:17.258Z,46.15
2023-01-18T22:58:44.235Z,46.28
2023-01-18T23:01:18.173Z,46.68
2023-01-18T23:03:45.431Z,46.72
2023-01-18T23:06:12.348Z,47.16
2023-01-18T23:08:44.706Z,46.62
2023-01-18T23:11:17.290Z,47.83
2023-01-18T23:14:06.254Z,47.88
2023-01-18T23:16:51.825Z,48.74
2023-01-18T23:19:18.950Z,49.13
2023-01-18T23:21:45.652Z,49.87
2023-01-18T23:24:12.296Z,50.68
2023-01-18T23:26:38.953Z,51.04
2023-01-18T23:29:05.705Z,50.96
2023-01-18T23:31:32.608Z,51.16
2023-01-18T23:33:59.456Z,51.53
2023-01-18T23:36:26.198Z,51.79
2023-01-18T23:39:11.522Z,51.91
2023-01-18T23:41:56.817Z,52.18
2023-01-18T23:44:42.193Z,52.67
2023-01-18T23:47:27.745Z,52.56
2023-01-18T23:50:13.172Z,53.42
2023-01-18T23:52:58.922Z,53.47
2023-01-18T23:55:25.510Z,53.17
2023-01-18T23:57:52.149Z,53.49
